Time;durP1;ratioP1;P1;durP2;ratioP2;P2;SDS_P1;SDS_P2;PMS_P1;PMS_P2;Temp;Humidity;BMP_temperature;BMP_pressure;BME280_temperature;BME280_humidity;BME280_pressure;Samples;Min_cycle;Max_cycle;Signal;HPM_P1;HPM_P2
2023/01/28 00:00:43;;;;;;;42.80;26.70;;;;;;;2.75;100.00;101003.44;180057;1265;46035;-73
2023/01/28 00:04:59;;;;;;;41.80;25.60;;;;;;;2.74;100.00;101007.66;179929;1265;58228;-73
2023/01/28 00:09:34;;;;;;;47.40;26.60;;;;;;;2.75;100.00;101004.81;179734;1265;46242;-73
2023/01/28 00:13:38;;;;;;;44.90;27.80;;;;;;;2.67;100.00;101004.58;179714;1264;45998;-73
2023/01/28 00:17:49;;;;;;;39.50;24.40;;;;;;;2.65;100.00;101000.98;179678;1265;44646;-73
2023/01/28 00:21:51;;;;;;;38.00;23.70;;;;;;;2.73;100.00;101003.85;179711;1264;43819;-73
2023/01/28 00:26:53;;;;;;;40.20;27.80;;;;;;;2.70;100.00;101002.20;179685;1269;57990;-73
2023/01/28 00:30:56;;;;;;;37.50;23.90;;;;;;;2.57;100.00;101001.27;179752;1265;45987;-73
2023/01/28 00:35:08;;;;;;;47.50;25.30;;;;;;;2.51;100.00;101003.77;179704;1264;45941;-73
2023/01/28 00:39:16;;;;;;;32.70;22.30;;;;;;;2.47;100.00;101001.10;179712;1265;46085;-73
2023/01/28 00:43:20;;;;;;;36.40;21.50;;;;;;;2.36;100.00;101000.98;179746;1265;44610;-72
2023/01/28 00:53:17;;;;;;;39.60;23.60;;;;;;;2.18;100.00;100997.42;179850;1264;46151;-72
2023/01/28 00:57:20;;;;;;;40.00;23.60;;;;;;;2.14;100.00;100997.73;179833;1265;43732;-72
2023/01/28 01:01:26;;;;;;;33.20;21.90;;;;;;;2.03;100.00;100996.52;179743;1265;44809;-72
2023/01/28 01:05:29;;;;;;;39.10;24.60;;;;;;;1.97;100.00;101002.33;179876;1265;46026;-72
2023/01/28 01:09:32;;;;;;;44.70;24.80;;;;;;;2.00;100.00;100995.77;179796;1265;58069;-73
2023/01/28 01:13:36;;;;;;;38.10;24.40;;;;;;;1.99;100.00;100998.44;179843;1265;44158;-73
2023/01/28 01:17:41;;;;;;;36.90;25.00;;;;;;;1.96;100.00;101004.81;179696;1266;44592;-73
2023/01/28 01:22:37;;;;;;;41.40;21.60;;;;;;;1.90;100.00;101012.73;179618;1265;235905;-73
2023/01/28 01:26:40;;;;;;;37.00;22.20;;;;;;;1.80;100.00;101011.30;179849;1265;43828;-72
2023/01/28 01:30:43;;;;;;;39.10;23.90;;;;;;;1.77;100.00;101011.94;179813;1265;58335;-73
2023/01/28 01:34:52;;;;;;;39.90;25.40;;;;;;;1.72;100.00;101016.10;179692;1265;46153;-73
2023/01/28 01:39:29;;;;;;;44.50;25.20;;;;;;;1.65;100.00;101030.67;179316;1266;74567;-87
2023/01/28 01:44:05;;;;;;;35.90;21.80;;;;;;;1.59;100.00;101034.55;177236;1266;46090;-87
2023/01/28 01:48:20;;;;;;;48.70;26.70;;;;;;;1.57;100.00;101040.38;175583;1271;46012;-86
2023/01/28 01:52:29;;;;;;;40.60;23.90;;;;;;;1.49;100.00;101038.71;175613;1271;57975;-87
2023/01/28 01:56:40;;;;;;;41.40;27.00;;;;;;;1.45;100.00;101040.23;175565;1273;45960;-86
2023/01/28 02:00:43;;;;;;;44.30;22.90;;;;;;;1.40;100.00;101044.05;175844;1273;46130;-86
2023/01/28 02:04:46;;;;;;;39.30;25.50;;;;;;;1.37;100.00;101041.86;175256;1271;46536;-86
2023/01/28 02:08:54;;;;;;;41.70;24.60;;;;;;;1.36;100.00;101048.21;175293;1273;46020;-86
2023/01/28 02:12:58;;;;;;;35.90;23.70;;;;;;;1.33;100.00;101052.14;175785;1272;59752;-86
2023/01/28 02:17:01;;;;;;;40.50;24.10;;;;;;;1.34;100.00;101047.04;175782;1271;46307;-86
2023/01/28 02:21:30;;;;;;;37.80;24.50;;;;;;;1.34;100.00;101046.70;175740;1271;46017;-86
2023/01/28 02:25:51;;;;;;;36.30;24.50;;;;;;;1.26;100.00;101053.58;176527;1267;46453;-86
2023/01/28 02:29:58;;;;;;;43.20;22.80;;;;;;;1.21;100.00;101054.23;176701;1265;45993;-86
2023/01/28 02:34:12;;;;;;;40.60;25.80;;;;;;;1.16;100.00;101056.50;176557;1265;58304;-87
2023/01/28 02:38:35;;;;;;;41.30;25.20;;;;;;;1.14;100.00;101051.81;176246;1265;46174;-86
2023/01/28 02:42:39;;;;;;;40.20;22.60;;;;;;;1.14;100.00;101053.56;176128;1265;45969;-85
2023/01/28 02:51:23;;;;;;;33.70;21.60;;;;;;;1.19;100.00;101055.70;176380;1265;45915;-86
2023/01/28 02:55:43;;;;;;;36.50;23.60;;;;;;;1.24;100.00;101056.25;176679;1267;59442;-87
2023/01/28 03:00:00;;;;;;;38.40;25.40;;;;;;;1.26;100.00;101062.13;176897;1265;46183;-86
2023/01/28 03:04:20;;;;;;;40.30;23.70;;;;;;;1.23;100.00;101062.05;176105;1265;46090;-87
2023/01/28 03:39:56;;;;;;;33.80;19.70;;;;;;;1.43;100.00;101073.51;176249;1268;57988;-87
2023/01/28 03:48:33;;;;;;;30.10;20.20;;;;;;;1.35;100.00;101069.91;176280;1265;45267;-86
2023/01/28 03:52:37;;;;;;;31.10;16.60;;;;;;;1.33;100.00;101073.27;176308;1266;54333;-86
2023/01/28 03:56:41;;;;;;;35.00;18.20;;;;;;;1.36;100.00;101075.65;176421;1267;44265;-87
2023/01/28 04:00:44;;;;;;;33.20;20.30;;;;;;;1.34;100.00;101079.89;177076;1267;58443;-86
2023/01/28 04:04:48;;;;;;;27.50;18.50;;;;;;;1.33;100.00;101084.82;176815;1265;46167;-86
2023/01/28 04:08:57;;;;;;;42.50;18.50;;;;;;;1.33;100.00;101083.07;176345;1266;45991;-86
2023/01/28 04:13:01;;;;;;;28.00;18.30;;;;;;;1.29;100.00;101084.23;176299;1265;46105;-86
2023/01/28 04:17:06;;;;;;;27.30;17.00;;;;;;;1.28;100.00;101084.09;176134;1265;44888;-87
2023/01/28 04:21:10;;;;;;;46.80;20.80;;;;;;;1.25;100.00;101090.11;176131;1265;57225;-86
2023/01/28 04:25:14;;;;;;;29.90;16.30;;;;;;;1.24;100.00;101094.51;176061;1265;45983;-84
2023/01/28 04:29:17;;;;;;;26.10;18.50;;;;;;;1.26;100.00;101090.09;176137;1265;46266;-86
2023/01/28 04:33:21;;;;;;;22.80;14.30;;;;;;;1.24;100.00;101097.33;176538;1265;46247;-86
2023/01/28 04:37:24;;;;;;;24.90;17.00;;;;;;;1.18;100.00;101098.02;176858;1267;46183;-85
2023/01/28 04:41:27;;;;;;;23.00;15.10;;;;;;;1.17;100.00;101097.34;177386;1268;58301;-85
2023/01/28 04:45:31;;;;;;;21.70;12.60;;;;;;;1.20;100.00;101094.82;177045;1265;46033;-87
2023/01/28 04:49:34;;;;;;;24.90;15.40;;;;;;;1.22;100.00;101095.65;176506;1265;46068;-85
2023/01/28 04:53:37;;;;;;;21.10;13.80;;;;;;;1.23;100.00;101104.00;177031;1265;45352;-86
2023/01/28 04:57:41;;;;;;;20.60;13.90;;;;;;;1.20;99.82;101107.23;176896;1265;46158;-86
2023/01/28 05:01:45;;;;;;;18.10;13.70;;;;;;;1.19;99.56;101108.48;177220;1265;59613;-87
2023/01/28 05:05:49;;;;;;;22.70;14.20;;;;;;;1.21;99.63;101109.64;176679;1265;45998;-86
2023/01/28 05:09:52;;;;;;;17.40;12.20;;;;;;;1.20;99.37;101111.77;176951;1267;46049;-86
2023/01/28 05:13:56;;;;;;;18.00;13.20;;;;;;;1.13;98.57;101117.91;176439;1265;46216;-86
2023/01/28 05:18:00;;;;;;;13.20;10.10;;;;;;;1.09;98.63;101123.44;177185;1265;46002;-86
2023/01/28 05:22:03;;;;;;;20.90;12.80;;;;;;;1.08;98.95;101123.27;177811;1265;58647;-86
2023/01/28 05:26:06;;;;;;;13.10;9.30;;;;;;;1.10;99.14;101129.34;177481;1265;44265;-86
2023/01/28 05:30:10;;;;;;;14.80;10.20;;;;;;;1.13;98.74;101126.64;176997;1270;46190;-86
2023/01/28 05:34:13;;;;;;;20.30;14.40;;;;;;;1.13;99.21;101129.59;177713;1265;46059;-86
2023/01/28 05:38:16;;;;;;;20.80;11.30;;;;;;;1.13;99.46;101132.39;177968;1269;46241;-85
2023/01/28 05:42:21;;;;;;;16.10;12.70;;;;;;;1.10;99.30;101135.10;177254;1265;59920;-86
2023/01/28 05:46:24;;;;;;;18.60;13.10;;;;;;;1.07;98.97;101135.70;177051;1265;46014;-86
2023/01/28 05:50:27;;;;;;;22.70;11.90;;;;;;;1.03;99.05;101137.58;177963;1265;46082;-86
2023/01/28 05:54:31;;;;;;;15.40;11.40;;;;;;;1.02;99.50;101141.10;176979;1266;45985;-86
2023/01/28 05:58:35;;;;;;;19.70;12.90;;;;;;;1.01;100.00;101140.61;177379;1267;46105;-86
2023/01/28 06:02:40;;;;;;;15.60;11.90;;;;;;;0.95;100.00;101143.74;177063;1265;59906;-85
2023/01/28 06:06:44;;;;;;;19.70;10.40;;;;;;;0.93;100.00;101143.09;177079;1265;46130;-86
2023/01/28 06:10:49;;;;;;;16.40;12.00;;;;;;;0.86;100.00;101145.92;177599;1265;46111;-86
2023/01/28 06:14:53;;;;;;;13.10;8.90;;;;;;;0.82;100.00;101154.73;177340;1266;46001;-86
2023/01/28 06:18:56;;;;;;;16.90;10.00;;;;;;;0.78;100.00;101157.46;177088;1270;46027;-86
2023/01/28 06:22:59;;;;;;;14.80;10.10;;;;;;;0.73;100.00;101153.42;177245;1269;59370;-87
2023/01/28 06:27:03;;;;;;;19.50;11.10;;;;;;;0.73;100.00;101153.78;177002;1265;46143;-86
2023/01/28 06:31:07;;;;;;;13.60;10.70;;;;;;;0.76;100.00;101158.23;176984;1267;46238;-87
2023/01/28 06:35:11;;;;;;;17.20;10.30;;;;;;;0.81;100.00;101165.61;177380;1267;46020;-87
2023/01/28 06:39:14;;;;;;;16.50;10.60;;;;;;;0.81;100.00;101171.87;177015;1269;46313;-86
2023/01/28 06:43:17;;;;;;;14.40;11.10;;;;;;;0.81;100.00;101182.70;176911;1265;59216;-86
2023/01/28 06:47:20;;;;;;;16.10;10.70;;;;;;;0.81;100.00;101184.98;176965;1265;44837;-88
2023/01/28 06:51:25;;;;;;;18.80;12.10;;;;;;;0.75;100.00;101186.20;176658;1265;46507;-87
2023/01/28 06:55:30;;;;;;;19.60;13.00;;;;;;;0.70;100.00;101190.00;176738;1265;46155;-87
2023/01/28 06:59:34;;;;;;;19.80;12.70;;;;;;;0.68;100.00;101188.64;176379;1265;46137;-86
2023/01/28 07:03:37;;;;;;;17.70;12.10;;;;;;;0.65;100.00;101190.99;176341;1265;59288;-86
2023/01/28 07:07:41;;;;;;;20.60;12.20;;;;;;;0.64;100.00;101197.81;177550;1265;46098;-87
2023/01/28 07:11:45;;;;;;;19.40;13.70;;;;;;;0.64;100.00;101201.48;178077;1265;46017;-87
2023/01/28 07:15:50;;;;;;;16.50;13.10;;;;;;;0.62;100.00;101210.63;176637;1265;45130;-87
2023/01/28 07:19:53;;;;;;;21.30;13.30;;;;;;;0.60;100.00;101211.90;176421;1268;46648;-86
2023/01/28 07:23:56;;;;;;;14.80;10.10;;;;;;;0.62;100.00;101214.64;176320;1265;58769;-86
2023/01/28 07:28:00;;;;;;;11.30;8.60;;;;;;;0.63;100.00;101213.05;177177;1267;46136;-87
2023/01/28 07:32:06;;;;;;;18.80;12.80;;;;;;;0.55;100.00;101221.27;176603;1265;47870;-86
2023/01/28 07:36:09;;;;;;;16.20;11.30;;;;;;;0.56;100.00;101220.88;176802;1265;46109;-86
2023/01/28 07:40:13;;;;;;;14.40;11.30;;;;;;;0.55;99.97;101221.27;176507;1267;46144;-85
2023/01/28 07:44:16;;;;;;;18.30;10.50;;;;;;;0.55;99.85;101220.22;176459;1265;58476;-86
2023/01/28 07:48:19;;;;;;;15.90;9.80;;;;;;;0.57;99.99;101217.38;176099;1265;46113;-86
2023/01/28 07:52:23;;;;;;;18.30;11.00;;;;;;;0.54;98.93;101217.45;175818;1265;46129;-86
2023/01/28 07:56:28;;;;;;;15.60;9.00;;;;;;;0.55;99.53;101220.39;176218;1266;46118;-86
2023/01/28 08:00:39;;;;;;;19.10;10.40;;;;;;;0.56;98.93;101220.02;176639;1266;46043;-86
2023/01/28 08:04:43;;;;;;;16.90;9.50;;;;;;;0.55;98.01;101224.23;176218;1265;59321;-86
2023/01/28 08:08:47;;;;;;;15.30;7.60;;;;;;;0.57;98.80;101222.95;176262;1265;46481;-86
2023/01/28 08:12:52;;;;;;;14.10;8.80;;;;;;;0.60;97.52;101228.30;176189;1265;46455;-86
2023/01/28 08:16:56;;;;;;;14.40;9.20;;;;;;;0.62;96.97;101229.30;176159;1265;46219;-88
2023/01/28 08:20:59;;;;;;;11.30;9.00;;;;;;;0.63;96.33;101232.06;176249;1265;45938;-87
2023/01/28 08:25:03;;;;;;;11.50;8.00;;;;;;;0.65;95.97;101233.59;176278;1267;58224;-86
2023/01/28 08:29:06;;;;;;;11.00;8.80;;;;;;;0.62;95.60;101234.70;176135;1265;46759;-86
2023/01/28 08:33:13;;;;;;;10.30;7.30;;;;;;;0.67;96.63;101230.56;176663;1265;46021;-86
2023/01/28 08:37:16;;;;;;;11.10;9.30;;;;;;;0.70;96.51;101232.40;176174;1270;46251;-86
2023/01/28 08:41:21;;;;;;;11.30;9.30;;;;;;;0.69;96.26;101238.39;176282;1267;46049;-86
2023/01/28 08:45:26;;;;;;;10.70;7.80;;;;;;;0.73;95.46;101238.11;176020;1265;60136;-86
2023/01/28 08:49:29;;;;;;;13.30;8.70;;;;;;;0.72;95.31;101235.68;176284;1265;46100;-86
2023/01/28 08:53:33;;;;;;;12.30;9.30;;;;;;;0.76;96.64;101234.54;176284;1265;46117;-86
2023/01/28 08:57:36;;;;;;;24.60;10.10;;;;;;;0.78;94.90;101241.29;176368;1265;46007;-85
2023/01/28 09:01:39;;;;;;;11.70;9.20;;;;;;;0.80;94.81;101242.80;176313;1265;46126;-85
2023/01/28 09:05:43;;;;;;;11.00;9.80;;;;;;;0.79;94.32;101250.17;176566;1269;57315;-86
2023/01/28 09:09:46;;;;;;;12.60;9.90;;;;;;;0.77;93.83;101251.80;176151;1265;46024;-87
2023/01/28 09:13:50;;;;;;;15.20;10.80;;;;;;;0.77;94.12;101252.48;176010;1266;45903;-86
2023/01/28 09:17:57;;;;;;;14.40;10.80;;;;;;;0.78;94.13;101258.05;175979;1265;46478;-86
2023/01/28 09:22:03;;;;;;;18.10;9.60;;;;;;;0.81;93.91;101262.71;176061;1265;46129;-86
2023/01/28 09:26:07;;;;;;;15.50;10.70;;;;;;;0.80;93.18;101266.03;176038;1269;57960;-85
2023/01/28 09:30:12;;;;;;;13.20;8.60;;;;;;;0.82;93.93;101260.94;176434;1265;46026;-86
2023/01/28 09:34:16;;;;;;;9.80;8.60;;;;;;;0.84;92.96;101264.55;176077;1265;46072;-86
2023/01/28 09:38:19;;;;;;;9.70;8.40;;;;;;;0.87;92.91;101270.23;175970;1269;46120;-86
2023/01/28 09:42:32;;;;;;;13.70;9.50;;;;;;;0.85;92.21;101273.60;176439;1269;46097;-87
2023/01/28 09:46:37;;;;;;;13.90;8.70;;;;;;;0.81;91.69;101279.64;176672;1265;59784;-85
2023/01/28 09:50:44;;;;;;;10.10;7.30;;;;;;;0.75;90.83;101281.86;176491;1271;46169;-86
2023/01/28 09:55:26;;;;;;;9.50;7.50;;;;;;;0.73;90.77;101285.26;179314;1265;44552;-91
2023/01/28 09:59:35;;;;;;;12.30;7.00;;;;;;;0.76;90.78;101280.44;180088;1265;74213;-75
2023/01/28 10:09:48;;;;;;;9.60;6.70;;;;;;;0.84;90.20;101283.21;180196;1265;57710;-75
2023/01/28 10:14:05;;;;;;;9.60;6.40;;;;;;;0.88;90.07;101278.23;180085;1264;43747;-74
2023/01/28 10:18:10;;;;;;;9.10;6.40;;;;;;;0.94;90.35;101271.79;179993;1265;43900;-75
2023/01/28 10:22:45;;;;;;;7.80;4.50;;;;;;;1.03;90.20;101271.58;179876;1265;44599;-77
2023/01/28 10:26:48;;;;;;;8.00;7.00;;;;;;;1.12;88.63;101270.98;179597;1265;45907;-77
2023/01/28 10:30:53;;;;;;;10.60;6.90;;;;;;;1.17;88.30;101272.59;179369;1265;58450;-75
2023/01/28 10:35:03;;;;;;;8.00;5.60;;;;;;;1.21;89.23;101274.23;179354;1265;46068;-76
2023/01/28 10:44:49;;;;;;;7.50;5.30;;;;;;;1.19;85.40;101280.24;179755;1264;44183;-78
2023/01/28 10:49:30;;;;;;;6.00;3.90;;;;;;;1.18;85.36;101278.67;179730;1265;45892;-78
2023/01/28 10:53:36;;;;;;;6.10;3.80;;;;;;;1.21;84.66;101281.58;180114;1265;58635;-77
2023/01/28 11:02:27;;;;;;;10.30;6.30;;;;;;;1.35;85.74;101284.17;177808;1266;44073;-88
2023/01/28 11:06:31;;;;;;;12.10;8.20;;;;;;;1.40;85.12;101281.08;177103;1267;46246;-88
2023/01/28 11:10:44;;;;;;;10.10;7.00;;;;;;;1.41;85.22;101274.03;177362;1266;46021;-91
2023/01/28 11:15:43;;;;;;;10.00;5.50;;;;;;;1.40;85.23;101276.88;180430;1264;74610;-79
2023/01/28 11:42:22;;;;;;;7.90;4.90;;;;;;;1.26;82.77;101279.52;142807;1280;73939;-78
2023/01/28 11:57:03;;;;;;;9.70;6.20;;;;;;;1.15;82.90;101283.30;142859;1279;73470;-77
2023/01/28 12:01:45;;;;;;;7.90;5.70;;;;;;;1.13;82.64;101282.84;178063;1269;46128;-90
2023/01/28 12:05:56;;;;;;;11.30;8.60;;;;;;;1.08;82.66;101281.75;178197;1265;60169;-91
2023/01/28 12:10:08;;;;;;;8.00;5.30;;;;;;;1.09;84.26;101274.22;177762;1265;46470;-90
2023/01/28 12:14:31;;;;;;;8.60;6.60;;;;;;;1.06;83.08;101278.83;178040;1266;46036;-90
2023/01/28 12:18:44;;;;;;;9.50;7.70;;;;;;;1.11;84.77;101268.92;179192;1266;44802;-91
2023/01/28 12:23:13;;;;;;;7.60;5.80;;;;;;;1.07;82.62;101271.45;179222;1265;44584;-91
2023/01/28 12:32:30;;;;;;;8.90;7.20;;;;;;;1.04;82.95;101270.68;180493;1265;76981;-78
2023/01/28 13:11:19;;;;;;;6.50;4.60;;;;;;;1.24;78.72;101277.66;181036;1268;43824;-78
2023/01/28 13:21:02;;;;;;;6.40;3.90;;;;;;;1.19;80.75;101279.55;181024;1265;43733;-76
2023/01/28 13:25:33;;;;;;;4.70;3.20;;;;;;;1.03;81.87;101285.19;173359;1265;10136509;-76
2023/01/28 13:29:36;;;;;;;4.70;3.20;;;;;;;0.91;82.61;101286.55;181030;1265;43296;-76
2023/01/28 13:33:41;;;;;;;5.80;3.10;;;;;;;0.77;81.98;101292.15;180968;1267;43087;-75
2023/01/28 13:37:47;;;;;;;5.50;4.30;;;;;;;0.55;84.41;101292.30;180976;1266;43100;-76
2023/01/28 13:41:51;;;;;;;6.90;3.90;;;;;;;0.52;83.55;101297.79;181006;1267;43813;-75
2023/01/28 13:51:31;;;;;;;7.60;4.40;;;;;;;0.66;84.12;101296.22;181091;1265;43118;-72
2023/01/28 13:55:38;;;;;;;7.50;5.20;;;;;;;0.75;82.37;101297.23;181082;1265;43124;-76
2023/01/28 14:01:21;;;;;;;;;;;;;;;;;;;;;
2023/01/28 14:06:46;;;;;;;4.90;3.20;;;;;;;0.70;80.39;101312.20;180677;1265;77695;-66
2023/01/28 14:16:16;;;;;;;7.50;4.50;;;;;;;0.62;81.59;101319.73;180911;1267;75255;-66
2023/01/28 14:20:46;;;;;;;7.00;5.10;;;;;;;0.48;79.95;101331.92;180359;1267;43840;-89
2023/01/28 14:24:52;;;;;;;6.90;5.10;;;;;;;0.39;80.37;101334.90;180288;1267;44245;-87
2023/01/28 14:29:06;;;;;;;7.10;5.40;;;;;;;0.23;79.56;101339.80;180471;1267;45695;-89
2023/01/28 14:33:12;;;;;;;12.40;6.40;;;;;;;0.24;79.49;101337.69;180472;1267;60721;-89
2023/01/28 14:37:20;;;;;;;11.20;7.10;;;;;;;0.23;80.36;101335.78;180320;1267;44269;-89
2023/01/28 14:41:48;;;;;;;10.00;6.20;;;;;;;0.23;80.30;101337.00;180442;1267;43809;-89
2023/01/28 14:46:38;;;;;;;10.20;6.90;;;;;;;0.11;78.30;101342.50;180722;1267;44012;-90
2023/01/28 14:56:21;;;;;;;14.20;9.10;;;;;;;0.03;78.72;101348.77;176107;1267;76843;-67
2023/01/28 15:00:29;;;;;;;11.20;7.60;;;;;;;-0.00;78.11;101345.70;180967;1266;43745;-67
2023/01/28 15:04:33;;;;;;;8.70;7.70;;;;;;;0.06;79.32;101347.48;180992;1268;43635;-67
2023/01/28 15:08:36;;;;;;;19.50;10.00;;;;;;;0.06;80.89;101354.11;180945;1271;43097;-67
2023/01/28 15:12:46;;;;;;;9.40;7.60;;;;;;;-0.09;83.38;101355.64;181077;1265;43769;-67
2023/01/28 15:16:49;;;;;;;12.40;7.90;;;;;;;-0.21;84.93;101358.13;180879;1268;58783;-66
2023/01/28 15:20:54;;;;;;;9.20;7.80;;;;;;;-0.28;84.74;101353.75;180910;1267;43054;-66
2023/01/28 15:24:57;;;;;;;16.50;12.60;;;;;;;-0.22;85.55;101355.54;180940;1267;43084;-67
2023/01/28 15:29:31;;;;;;;14.70;12.10;;;;;;;-0.18;84.85;101355.13;180944;1267;44208;-67
2023/01/28 15:33:36;;;;;;;24.20;19.40;;;;;;;-0.18;84.24;101354.77;180782;1266;43514;-67
2023/01/28 15:37:39;;;;;;;16.20;9.90;;;;;;;-0.21;83.77;101355.71;180842;1267;57861;-67
2023/01/28 15:41:47;;;;;;;14.30;8.50;;;;;;;-0.24;83.85;101360.48;180904;1268;43857;-67
2023/01/28 15:45:54;;;;;;;13.70;9.80;;;;;;;-0.25;83.01;101362.41;180862;1268;43042;-67
2023/01/28 15:50:01;;;;;;;9.70;7.20;;;;;;;-0.16;84.26;101357.52;180883;1267;43714;-67
2023/01/28 15:54:09;;;;;;;11.40;8.90;;;;;;;-0.20;83.34;101354.46;180930;1267;43751;-66
2023/01/28 15:58:27;;;;;;;9.50;7.30;;;;;;;-0.11;83.39;101363.87;180934;1266;58037;-68
2023/01/28 16:02:31;;;;;;;14.80;11.20;;;;;;;-0.08;83.51;101360.67;180853;1267;43145;-67
2023/01/28 16:06:40;;;;;;;24.40;15.80;;;;;;;-0.10;84.39;101356.01;180976;1267;43148;-66
2023/01/28 16:10:54;;;;;;;13.00;9.90;;;;;;;-0.15;84.83;101361.85;180942;1267;43858;-67
2023/01/28 16:15:00;;;;;;;26.00;16.30;;;;;;;-0.24;85.59;101364.64;180960;1267;43747;-66
2023/01/28 16:19:06;;;;;;;158.20;64.90;;;;;;;-0.28;86.45;101365.42;180895;1268;58366;-66
2023/01/28 16:23:20;;;;;;;41.00;18.80;;;;;;;-0.27;86.54;101366.80;180930;1267;43615;-67
2023/01/28 16:27:26;;;;;;;20.80;13.10;;;;;;;-0.26;86.85;101361.55;180923;1268;43695;-66
2023/01/28 16:31:29;;;;;;;7.60;5.90;;;;;;;-0.18;87.36;101354.25;180952;1267;43789;-67
2023/01/28 16:35:32;;;;;;;10.90;6.40;;;;;;;-0.09;87.81;101349.70;180948;1267;43669;-67
2023/01/28 16:39:56;;;;;;;10.40;6.70;;;;;;;-0.01;87.38;101348.33;180940;1267;58061;-67
2023/01/28 16:44:04;;;;;;;10.50;7.30;;;;;;;0.11;86.79;101333.77;180818;1267;43101;-66
2023/01/28 16:48:07;;;;;;;12.00;6.80;;;;;;;0.17;85.75;101331.91;181013;1268;43770;-69
2023/01/28 16:52:45;;;;;;;7.70;6.10;;;;;;;0.21;85.65;101330.78;180882;1270;43795;-67
2023/01/28 16:56:48;;;;;;;8.20;7.30;;;;;;;0.28;86.29;101331.85;180969;1268;43711;-67
2023/01/28 17:00:51;;;;;;;11.50;7.10;;;;;;;0.36;86.36;101332.52;180865;1268;57944;-66
2023/01/28 17:04:59;;;;;;;8.90;8.00;;;;;;;0.41;85.03;101329.45;180862;1267;43661;-66
2023/01/28 17:09:05;;;;;;;8.50;6.80;;;;;;;0.44;85.52;101330.45;181005;1267;43776;-66
2023/01/28 17:13:08;;;;;;;11.10;7.10;;;;;;;0.55;85.88;101330.89;180854;1267;43119;-67
2023/01/28 17:17:40;;;;;;;9.50;7.20;;;;;;;0.57;85.54;101335.38;180922;1267;43524;-67
2023/01/28 17:21:43;;;;;;;12.20;7.50;;;;;;;0.56;85.09;101342.71;180971;1266;58023;-67
2023/01/28 17:25:45;;;;;;;15.20;8.30;;;;;;;0.55;84.62;101355.48;180948;1268;43979;-68
2023/01/28 17:29:48;;;;;;;15.20;8.10;;;;;;;0.59;84.20;101352.45;180955;1267;48161;-67
2023/01/28 17:33:56;;;;;;;11.80;8.40;;;;;;;0.65;83.42;101354.92;180825;1268;43802;-67
2023/01/28 17:37:59;;;;;;;14.70;9.80;;;;;;;0.74;83.27;101359.08;180928;1266;43348;-66
2023/01/28 17:42:02;;;;;;;12.80;10.50;;;;;;;0.78;82.27;101359.69;180970;1268;59502;-66
2023/01/28 17:46:25;;;;;;;16.90;11.30;;;;;;;0.79;81.67;101366.83;180941;1268;43787;-67
2023/01/28 17:50:28;;;;;;;15.40;10.30;;;;;;;0.85;82.32;101383.46;180910;1267;43785;-68
2023/01/28 17:54:34;;;;;;;15.50;11.10;;;;;;;0.76;80.71;101385.58;180939;1266;43168;-67
2023/01/28 17:58:36;;;;;;;16.80;9.10;;;;;;;0.76;80.23;101380.52;180923;1267;43067;-66
2023/01/28 18:02:39;;;;;;;12.00;8.10;;;;;;;0.76;79.72;101379.83;180941;1267;58048;-67
2023/01/28 18:06:43;;;;;;;12.50;10.20;;;;;;;0.70;78.40;101380.99;180914;1267;43226;-68
2023/01/28 18:10:46;;;;;;;12.90;10.80;;;;;;;0.62;78.08;101383.45;180858;1266;43707;-67
2023/01/28 18:15:14;;;;;;;12.90;8.90;;;;;;;0.58;78.95;101388.08;180951;1268;43115;-67
2023/01/28 18:19:18;;;;;;;13.50;10.70;;;;;;;0.55;76.31;101395.13;180960;1266;43050;-66
2023/01/28 18:23:20;;;;;;;16.50;9.70;;;;;;;0.54;77.90;101405.45;180905;1267;58042;-66
2023/01/28 18:27:53;;;;;;;12.10;8.40;;;;;;;0.63;79.95;101410.13;180930;1268;43647;-66
2023/01/28 18:31:57;;;;;;;13.90;8.10;;;;;;;0.75;79.80;101411.45;180955;1267;43739;-67
2023/01/28 18:36:00;;;;;;;14.40;9.60;;;;;;;0.84;79.44;101416.83;180872;1267;43801;-67
2023/01/28 18:40:04;;;;;;;18.80;9.90;;;;;;;0.81;79.04;101422.32;180848;1267;43074;-67
2023/01/28 18:45:00;;;;;;;11.40;6.10;;;;;;;0.73;76.58;101420.74;180971;1267;59559;-67
2023/01/28 18:49:03;;;;;;;13.30;6.70;;;;;;;0.78;78.25;101418.89;180928;1267;43686;-66
2023/01/28 18:53:06;;;;;;;7.00;6.10;;;;;;;0.76;77.38;101420.67;180955;1266;44030;-67
2023/01/28 18:57:34;;;;;;;13.00;9.40;;;;;;;0.68;75.96;101419.80;180901;1267;43940;-67
2023/01/28 19:01:39;;;;;;;13.10;10.70;;;;;;;0.59;77.33;101421.75;181013;1267;43076;-67
2023/01/28 19:05:41;;;;;;;20.20;12.90;;;;;;;0.59;77.56;101426.11;180902;1268;58646;-69
2023/01/28 19:09:44;;;;;;;12.80;8.10;;;;;;;0.57;78.18;101423.36;180959;1267;43705;-66
2023/01/28 19:13:47;;;;;;;9.10;7.00;;;;;;;0.55;77.35;101428.30;180890;1271;44023;-66
2023/01/28 19:17:50;;;;;;;8.30;4.90;;;;;;;0.55;78.00;101428.64;180951;1267;43861;-66
2023/01/28 19:21:53;;;;;;;139.00;53.90;;;;;;;0.60;78.84;101433.95;180852;1266;43154;-67
2023/01/28 19:25:56;;;;;;;16.00;8.70;;;;;;;0.50;80.32;101441.48;180972;1267;58080;-66
2023/01/28 19:29:59;;;;;;;16.50;8.10;;;;;;;0.42;81.69;101442.71;180965;1268;43710;-67
2023/01/28 19:34:02;;;;;;;13.30;6.50;;;;;;;0.28;82.82;101441.77;180840;1267;43659;-66
2023/01/28 19:38:05;;;;;;;9.70;8.20;;;;;;;0.29;82.39;101448.90;180936;1267;44166;-66
2023/01/28 19:48:01;;;;;;;15.20;10.80;;;;;;;0.16;82.43;101445.85;180966;1268;58060;-66
2023/01/28 19:52:10;;;;;;;15.00;10.40;;;;;;;0.19;83.10;101446.83;180806;1267;43129;-66
2023/01/28 19:56:14;;;;;;;13.20;7.40;;;;;;;0.23;83.03;101448.14;180977;1267;43463;-67
2023/01/28 20:00:17;;;;;;;13.30;7.60;;;;;;;0.32;83.32;101444.48;180868;1267;43429;-66
2023/01/28 20:04:21;;;;;;;5.80;4.50;;;;;;;0.40;83.02;101449.04;180847;1267;43388;-66
2023/01/28 20:08:25;;;;;;;22.00;11.20;;;;;;;0.43;84.37;101449.15;180945;1268;58191;-66
2023/01/28 20:12:28;;;;;;;55.50;28.80;;;;;;;0.46;83.96;101451.70;180893;1267;43358;-66
2023/01/28 20:16:33;;;;;;;127.10;64.30;;;;;;;0.49;83.38;101446.57;180883;1269;43840;-66
2023/01/28 20:20:36;;;;;;;35.60;14.90;;;;;;;0.55;84.19;101452.56;180961;1269;43354;-66
2023/01/28 20:24:39;;;;;;;19.90;9.10;;;;;;;0.48;85.23;101455.15;180868;1267;43636;-66
2023/01/28 20:28:42;;;;;;;11.30;7.30;;;;;;;0.53;85.74;101448.58;180973;1266;58012;-67
2023/01/28 20:32:45;;;;;;;6.30;5.30;;;;;;;0.65;85.47;101438.72;180939;1266;43709;-66
2023/01/28 20:36:48;;;;;;;10.40;7.10;;;;;;;0.73;84.88;101446.41;180828;1268;43435;-67
2023/01/28 20:40:51;;;;;;;6.00;4.30;;;;;;;0.84;84.26;101440.77;180890;1267;43449;-66
2023/01/28 20:44:58;;;;;;;6.60;3.80;;;;;;;0.89;83.00;101437.00;180869;1267;43071;-67
2023/01/28 20:49:01;;;;;;;6.60;3.80;;;;;;;0.94;83.76;101430.74;180854;1266;59743;-66
2023/01/28 20:53:09;;;;;;;7.60;5.20;;;;;;;1.03;83.91;101433.00;180859;1267;43114;-66
2023/01/28 20:57:12;;;;;;;5.60;4.10;;;;;;;1.12;83.77;101435.05;181016;1267;43859;-68
2023/01/28 21:01:20;;;;;;;8.40;5.20;;;;;;;1.18;83.16;101434.92;180908;1270;43250;-67
2023/01/28 21:05:23;;;;;;;11.90;6.60;;;;;;;1.20;82.13;101434.16;180854;1267;43007;-66
2023/01/28 21:09:28;;;;;;;7.00;5.90;;;;;;;1.27;81.75;101438.87;180867;1267;58063;-66
2023/01/28 21:13:31;;;;;;;8.60;5.30;;;;;;;1.25;80.52;101440.84;180891;1267;43739;-67
2023/01/28 21:22:51;;;;;;;10.50;7.20;;;;;;;1.19;80.82;101445.73;180961;1266;43973;-66
2023/01/28 21:26:54;;;;;;;14.70;7.00;;;;;;;1.13;80.90;101452.49;180868;1267;43068;-66
2023/01/28 21:31:41;;;;;;;14.90;10.00;;;;;;;1.05;81.26;101457.77;180889;1266;58359;-66
2023/01/28 21:35:44;;;;;;;13.20;7.70;;;;;;;0.94;81.07;101455.18;180907;1267;43406;-66
2023/01/28 21:40:17;;;;;;;9.90;7.10;;;;;;;0.82;80.87;101441.67;180842;1267;43614;-66
2023/01/28 21:44:20;;;;;;;8.00;6.20;;;;;;;0.83;81.49;101439.75;180906;1267;43683;-66
2023/01/28 21:48:24;;;;;;;8.80;5.00;;;;;;;0.83;81.94;101433.96;180984;1267;43775;-66